SPQ804 VVTS-VVNB
Flight info
| Callsign | SPQ804 |
|---|---|
| Flight time | 1h 44m |
| Altitude | 35000 |
| Route | PATMA5Q PATMA Q2 BISON BISON3E |
| Aircraft | A321/M-SDE3FGHIRWY/LB1 |
Departure
| Time | 2026-05-07 18:30 |
|---|---|
| Airport | Tan Son Nhat International Airport (VVTS) |
Arrival
| Time | 2026-05-07 20:15 |
|---|---|
| Airport | Noi Bai International Airport (VVNB) |
| Time | Latitude | Longitude | Altitude | Speed | Heading |
|---|---|---|---|---|---|
| 2026-05-07 17:57 | 10.81865 | 106.66226 | 37 ft | 0 kts | 8° |
| 2026-05-07 18:24 | 10.81882 | 106.66228 | 37 ft | 2 kts | 8° |
| 2026-05-07 18:24 | 10.81906 | 106.66233 | 37 ft | 6 kts | 15° |
| 2026-05-07 18:25 | 10.81941 | 106.66279 | 37 ft | 11 kts | 69° |
| 2026-05-07 18:25 | 10.81977 | 106.66376 | 37 ft | 17 kts | 69° |
| 2026-05-07 18:25 | 10.82018 | 106.66485 | 37 ft | 16 kts | 69° |
| 2026-05-07 18:25 | 10.82058 | 106.66590 | 36 ft | 15 kts | 69° |
| 2026-05-07 18:26 | 10.82095 | 106.66689 | 36 ft | 15 kts | 69° |
| 2026-05-07 18:26 | 10.82131 | 106.66783 | 36 ft | 14 kts | 69° |
| 2026-05-07 18:26 | 10.82163 | 106.66871 | 36 ft | 13 kts | 69° |
| 2026-05-07 18:26 | 10.82194 | 106.66952 | 34 ft | 12 kts | 69° |
| 2026-05-07 18:27 | 10.82237 | 106.67006 | 37 ft | 9 kts | 9° |
| 2026-05-07 18:27 | 10.82294 | 106.66988 | 37 ft | 8 kts | 327° |
| 2026-05-07 18:27 | 10.82333 | 106.66958 | 37 ft | 6 kts | 322° |
| 2026-05-07 18:27 | 10.82360 | 106.66933 | 37 ft | 4 kts | 297° |
| 2026-05-07 18:28 | 10.82356 | 106.66911 | 37 ft | 0 kts | 250° |
| 2026-05-07 18:29 | 10.82351 | 106.66898 | 37 ft | 8 kts | 250° |
| 2026-05-07 18:29 | 10.82280 | 106.66714 | 36 ft | 59 kts | 249° |
| 2026-05-07 18:29 | 10.82057 | 106.66120 | 37 ft | 118 kts | 249° |
| 2026-05-07 18:30 | 10.81710 | 106.65201 | 39 ft | 162 kts | 249° |
| 2026-05-07 18:30 | 10.81263 | 106.64025 | 145 ft | 187 kts | 247° |
| 2026-05-07 18:30 | 10.80811 | 106.62820 | 809 ft | 179 kts | 247° |
| 2026-05-07 18:30 | 10.80369 | 106.61626 | 1341 ft | 181 kts | 245° |
| 2026-05-07 18:31 | 10.79911 | 106.60424 | 1805 ft | 186 kts | 244° |
| 2026-05-07 18:31 | 10.79411 | 106.59130 | 1980 ft | 206 kts | 245° |
| 2026-05-07 18:31 | 10.78877 | 106.57738 | 2292 ft | 215 kts | 245° |
| 2026-05-07 18:31 | 10.78331 | 106.56306 | 2722 ft | 218 kts | 246° |
| 2026-05-07 18:32 | 10.77715 | 106.54894 | 3141 ft | 218 kts | 233° |
| 2026-05-07 18:32 | 10.76627 | 106.53858 | 3545 ft | 214 kts | 204° |
| 2026-05-07 18:32 | 10.75217 | 106.53486 | 3947 ft | 209 kts | 176° |
| 2026-05-07 18:32 | 10.73842 | 106.53830 | 4322 ft | 208 kts | 149° |
| 2026-05-07 18:33 | 10.72773 | 106.54799 | 4695 ft | 208 kts | 122° |
| 2026-05-07 18:33 | 10.72268 | 106.56168 | 5053 ft | 209 kts | 95° |
| 2026-05-07 18:33 | 10.72316 | 106.57643 | 5448 ft | 209 kts | 85° |
| 2026-05-07 18:33 | 10.72423 | 106.59121 | 5842 ft | 211 kts | 85° |
| 2026-05-07 18:34 | 10.72528 | 106.60612 | 6240 ft | 212 kts | 85° |
| 2026-05-07 18:34 | 10.72725 | 106.62096 | 6612 ft | 213 kts | 73° |
| 2026-05-07 18:34 | 10.73245 | 106.63555 | 6760 ft | 226 kts | 69° |
| 2026-05-07 18:34 | 10.73813 | 106.65105 | 6859 ft | 243 kts | 69° |
| 2026-05-07 18:35 | 10.74433 | 106.66794 | 7001 ft | 266 kts | 70° |
| 2026-05-07 18:35 | 10.75092 | 106.68597 | 7429 ft | 276 kts | 70° |
| 2026-05-07 18:35 | 10.75762 | 106.70438 | 8025 ft | 279 kts | 70° |
| 2026-05-07 18:35 | 10.76438 | 106.72270 | 8660 ft | 281 kts | 69° |
| 2026-05-07 18:36 | 10.77137 | 106.74130 | 9274 ft | 283 kts | 69° |
| 2026-05-07 18:36 | 10.77847 | 106.76006 | 9882 ft | 285 kts | 69° |
| 2026-05-07 18:36 | 10.78572 | 106.77927 | 10145 ft | 300 kts | 69° |
| 2026-05-07 18:36 | 10.79343 | 106.79975 | 10271 ft | 319 kts | 69° |
| 2026-05-07 18:37 | 10.80159 | 106.82141 | 10389 ft | 337 kts | 69° |
| 2026-05-07 18:37 | 10.81019 | 106.84431 | 10504 ft | 354 kts | 69° |
| 2026-05-07 18:37 | 10.81913 | 106.86824 | 10635 ft | 369 kts | 70° |
| 2026-05-07 18:37 | 10.82833 | 106.89284 | 10974 ft | 376 kts | 69° |
| 2026-05-07 18:38 | 10.83771 | 106.91782 | 11436 ft | 380 kts | 70° |
| 2026-05-07 18:38 | 10.84718 | 106.94307 | 11897 ft | 383 kts | 70° |
| 2026-05-07 18:38 | 10.85669 | 106.96853 | 12354 ft | 387 kts | 70° |
| 2026-05-07 18:38 | 10.86628 | 106.99425 | 12800 ft | 390 kts | 70° |
| 2026-05-07 18:39 | 10.87597 | 107.02022 | 13239 ft | 393 kts | 70° |
| 2026-05-07 18:39 | 10.88702 | 107.04577 | 13667 ft | 397 kts | 62° |
| 2026-05-07 18:39 | 10.90286 | 107.06895 | 14048 ft | 402 kts | 50° |
| 2026-05-07 18:39 | 10.92316 | 107.08859 | 14417 ft | 406 kts | 39° |
| 2026-05-07 18:40 | 10.94694 | 107.10432 | 14793 ft | 409 kts | 32° |
| 2026-05-07 18:40 | 10.97140 | 107.11925 | 15170 ft | 411 kts | 32° |
| 2026-05-07 18:40 | 10.99593 | 107.13427 | 15539 ft | 413 kts | 33° |
| 2026-05-07 18:40 | 11.02061 | 107.14943 | 15900 ft | 415 kts | 33° |
| 2026-05-07 18:41 | 11.04539 | 107.16467 | 16262 ft | 417 kts | 33° |
| 2026-05-07 18:41 | 11.07031 | 107.18002 | 16621 ft | 420 kts | 33° |
| 2026-05-07 18:41 | 11.09532 | 107.19547 | 16979 ft | 422 kts | 33° |
| 2026-05-07 18:41 | 11.12053 | 107.21103 | 17329 ft | 424 kts | 33° |
| 2026-05-07 18:42 | 11.14578 | 107.22658 | 17672 ft | 426 kts | 33° |
| 2026-05-07 18:42 | 11.17179 | 107.24128 | 17994 ft | 430 kts | 27° |
| 2026-05-07 18:42 | 11.19894 | 107.25437 | 18306 ft | 432 kts | 27° |
| 2026-05-07 18:42 | 11.22609 | 107.26753 | 18590 ft | 434 kts | 27° |
| 2026-05-07 18:43 | 11.25339 | 107.28081 | 18883 ft | 435 kts | 27° |
| 2026-05-07 18:43 | 11.28077 | 107.29416 | 19173 ft | 437 kts | 27° |
| 2026-05-07 18:43 | 11.30826 | 107.30758 | 19470 ft | 439 kts | 27° |
| 2026-05-07 18:43 | 11.33549 | 107.32088 | 19763 ft | 440 kts | 27° |
| 2026-05-07 18:44 | 11.36314 | 107.33440 | 20056 ft | 442 kts | 27° |
| 2026-05-07 18:44 | 11.39096 | 107.34797 | 20362 ft | 444 kts | 27° |
| 2026-05-07 18:44 | 11.41890 | 107.36157 | 20645 ft | 446 kts | 27° |
| 2026-05-07 18:44 | 11.44695 | 107.37520 | 20935 ft | 447 kts | 27° |
| 2026-05-07 18:45 | 11.47509 | 107.38888 | 21217 ft | 449 kts | 27° |
| 2026-05-07 18:45 | 11.50332 | 107.40262 | 21492 ft | 451 kts | 27° |
| 2026-05-07 18:45 | 11.53166 | 107.41641 | 21779 ft | 452 kts | 27° |
| 2026-05-07 18:45 | 11.56014 | 107.43027 | 22055 ft | 454 kts | 27° |
| 2026-05-07 18:46 | 11.58867 | 107.44417 | 22318 ft | 456 kts | 27° |
| 2026-05-07 18:46 | 11.61738 | 107.45817 | 22585 ft | 457 kts | 27° |
| 2026-05-07 18:46 | 11.64610 | 107.47220 | 22856 ft | 459 kts | 27° |
| 2026-05-07 18:46 | 11.67453 | 107.48609 | 23132 ft | 460 kts | 27° |
| 2026-05-07 18:47 | 11.70352 | 107.50025 | 23396 ft | 462 kts | 27° |
| 2026-05-07 18:47 | 11.73254 | 107.51442 | 23626 ft | 463 kts | 27° |
| 2026-05-07 18:47 | 11.76167 | 107.52865 | 23839 ft | 465 kts | 27° |
| 2026-05-07 18:47 | 11.79091 | 107.54293 | 24051 ft | 466 kts | 27° |
| 2026-05-07 18:48 | 11.82024 | 107.55724 | 24251 ft | 468 kts | 27° |
| 2026-05-07 18:48 | 11.84967 | 107.57161 | 24449 ft | 469 kts | 27° |
| 2026-05-07 18:48 | 11.87917 | 107.58601 | 24649 ft | 471 kts | 26° |
| 2026-05-07 18:48 | 11.90879 | 107.60048 | 24841 ft | 472 kts | 26° |
| 2026-05-07 18:49 | 11.93849 | 107.61500 | 25039 ft | 474 kts | 26° |
| 2026-05-07 18:49 | 11.96829 | 107.62961 | 25233 ft | 475 kts | 26° |
| 2026-05-07 18:49 | 11.99814 | 107.64423 | 25427 ft | 477 kts | 26° |
| 2026-05-07 18:49 | 12.02808 | 107.65890 | 25627 ft | 478 kts | 26° |
| 2026-05-07 18:50 | 12.05819 | 107.67361 | 25822 ft | 480 kts | 26° |
| 2026-05-07 18:50 | 12.08835 | 107.68836 | 26016 ft | 481 kts | 26° |
| 2026-05-07 18:50 | 12.11859 | 107.70315 | 26213 ft | 483 kts | 26° |
| 2026-05-07 18:50 | 12.14893 | 107.71800 | 26387 ft | 485 kts | 26° |
| 2026-05-07 18:51 | 12.17936 | 107.73295 | 26578 ft | 486 kts | 26° |
| 2026-05-07 18:51 | 12.20937 | 107.74772 | 26826 ft | 485 kts | 26° |
| 2026-05-07 18:51 | 12.23979 | 107.76266 | 27089 ft | 484 kts | 26° |
| 2026-05-07 18:51 | 12.27017 | 107.77757 | 27346 ft | 484 kts | 26° |
| 2026-05-07 18:52 | 12.30060 | 107.79232 | 27596 ft | 484 kts | 24° |
| 2026-05-07 18:52 | 12.33240 | 107.80367 | 27833 ft | 484 kts | 14° |
| 2026-05-07 18:52 | 12.36551 | 107.80977 | 28068 ft | 484 kts | 6° |
| 2026-05-07 18:52 | 12.39909 | 107.81117 | 28309 ft | 484 kts | 1° |
| 2026-05-07 18:53 | 12.43284 | 107.81182 | 28555 ft | 484 kts | 1° |
| 2026-05-07 18:53 | 12.46646 | 107.81249 | 28811 ft | 483 kts | 1° |
| 2026-05-07 18:53 | 12.50014 | 107.81319 | 29062 ft | 483 kts | 1° |
| 2026-05-07 18:53 | 12.53361 | 107.81390 | 29322 ft | 482 kts | 1° |
| 2026-05-07 18:54 | 12.56720 | 107.81458 | 29574 ft | 481 kts | 1° |
| 2026-05-07 18:54 | 12.60066 | 107.81525 | 29834 ft | 481 kts | 1° |
| 2026-05-07 18:54 | 12.63365 | 107.81591 | 30070 ft | 480 kts | 0° |
| 2026-05-07 18:54 | 12.66704 | 107.81656 | 30295 ft | 479 kts | 0° |
| 2026-05-07 18:55 | 12.70027 | 107.81720 | 30539 ft | 478 kts | 0° |
| 2026-05-07 18:55 | 12.73345 | 107.81785 | 30784 ft | 477 kts | 0° |
| 2026-05-07 18:55 | 12.76671 | 107.81851 | 31041 ft | 475 kts | 0° |
| 2026-05-07 18:55 | 12.79970 | 107.81918 | 31303 ft | 473 kts | 0° |
| 2026-05-07 18:56 | 12.83261 | 107.81982 | 31558 ft | 472 kts | 0° |
| 2026-05-07 18:56 | 12.86546 | 107.82045 | 31813 ft | 471 kts | 0° |
| 2026-05-07 18:56 | 12.89781 | 107.82106 | 32055 ft | 470 kts | 0° |
| 2026-05-07 18:56 | 12.93042 | 107.82169 | 32308 ft | 470 kts | 0° |
| 2026-05-07 18:57 | 12.96314 | 107.82234 | 32560 ft | 469 kts | 0° |
| 2026-05-07 18:57 | 12.99565 | 107.82302 | 32816 ft | 468 kts | 0° |
| 2026-05-07 18:57 | 13.02825 | 107.82369 | 33079 ft | 467 kts | 0° |
| 2026-05-07 18:57 | 13.06062 | 107.82434 | 33344 ft | 465 kts | 0° |
| 2026-05-07 18:58 | 13.09300 | 107.82498 | 33617 ft | 464 kts | 0° |
| 2026-05-07 18:58 | 13.12523 | 107.82560 | 33883 ft | 463 kts | 0° |
| 2026-05-07 18:58 | 13.15742 | 107.82624 | 34122 ft | 462 kts | 0° |
| 2026-05-07 18:58 | 13.18943 | 107.82689 | 34357 ft | 460 kts | 0° |
| 2026-05-07 18:59 | 13.22152 | 107.82752 | 34590 ft | 459 kts | 0° |
| 2026-05-07 18:59 | 13.25301 | 107.82812 | 34802 ft | 458 kts | 0° |
| 2026-05-07 18:59 | 13.28491 | 107.82873 | 34880 ft | 457 kts | 0° |
| 2026-05-07 19:00 | 13.34834 | 107.83000 | 34892 ft | 455 kts | 0° |
| 2026-05-07 19:00 | 13.41162 | 107.83134 | 34891 ft | 455 kts | 0° |
| 2026-05-07 19:01 | 13.47489 | 107.83270 | 34900 ft | 455 kts | 0° |
| 2026-05-07 19:01 | 13.53813 | 107.83400 | 34898 ft | 454 kts | 0° |
| 2026-05-07 19:02 | 13.60134 | 107.83528 | 34903 ft | 454 kts | 0° |
| 2026-05-07 19:02 | 13.66456 | 107.83659 | 34902 ft | 454 kts | 0° |
| 2026-05-07 19:03 | 13.72770 | 107.83798 | 34905 ft | 454 kts | 0° |
| 2026-05-07 19:03 | 13.79041 | 107.83927 | 34909 ft | 453 kts | 0° |
| 2026-05-07 19:04 | 13.85345 | 107.84058 | 34921 ft | 453 kts | 0° |
| 2026-05-07 19:04 | 13.91649 | 107.84187 | 34926 ft | 453 kts | 0° |
| 2026-05-07 19:05 | 13.97945 | 107.84318 | 34922 ft | 452 kts | 0° |
| 2026-05-07 19:05 | 14.04246 | 107.84413 | 34923 ft | 452 kts | 359° |
| 2026-05-07 19:06 | 14.10532 | 107.84394 | 34932 ft | 452 kts | 359° |
| 2026-05-07 19:06 | 14.19967 | 107.84351 | 34935 ft | 452 kts | 359° |
| 2026-05-07 19:07 | 14.26244 | 107.84361 | 34937 ft | 451 kts | 359° |
| 2026-05-07 19:07 | 14.32528 | 107.84369 | 34942 ft | 451 kts | 359° |
| 2026-05-07 19:08 | 14.38768 | 107.84368 | 34941 ft | 451 kts | 359° |
| 2026-05-07 19:08 | 14.45050 | 107.84359 | 34942 ft | 451 kts | 359° |
| 2026-05-07 19:09 | 14.51328 | 107.84357 | 34949 ft | 451 kts | 359° |
| 2026-05-07 19:09 | 14.57608 | 107.84366 | 34953 ft | 451 kts | 359° |
| 2026-05-07 19:10 | 14.63883 | 107.84369 | 34968 ft | 451 kts | 359° |
| 2026-05-07 19:10 | 14.70161 | 107.84371 | 34972 ft | 451 kts | 359° |
| 2026-05-07 19:11 | 14.76440 | 107.84363 | 34978 ft | 451 kts | 359° |
| 2026-05-07 19:11 | 14.82714 | 107.84356 | 34980 ft | 451 kts | 359° |
| 2026-05-07 19:12 | 14.88944 | 107.84362 | 34984 ft | 450 kts | 360° |
| 2026-05-07 19:12 | 14.95211 | 107.84548 | 34983 ft | 450 kts | 1° |
| 2026-05-07 19:13 | 15.01471 | 107.84850 | 34992 ft | 450 kts | 2° |
| 2026-05-07 19:13 | 15.07731 | 107.85123 | 34991 ft | 450 kts | 1° |
| 2026-05-07 19:14 | 15.12714 | 107.85313 | 34989 ft | 450 kts | 1° |
| 2026-05-07 19:14 | 15.20040 | 107.85578 | 34984 ft | 451 kts | 1° |
| 2026-05-07 19:15 | 15.26269 | 107.85810 | 34981 ft | 451 kts | 1° |
| 2026-05-07 19:15 | 15.31525 | 107.86012 | 34976 ft | 451 kts | 1° |
| 2026-05-07 19:16 | 15.37754 | 107.86253 | 34967 ft | 451 kts | 1° |
| 2026-05-07 19:16 | 15.44057 | 107.86497 | 34964 ft | 450 kts | 1° |
| 2026-05-07 19:17 | 15.50275 | 107.86733 | 34950 ft | 450 kts | 1° |
| 2026-05-07 19:17 | 15.56541 | 107.86977 | 34944 ft | 450 kts | 1° |
| 2026-05-07 19:18 | 15.63861 | 107.87260 | 34939 ft | 450 kts | 1° |
| 2026-05-07 19:18 | 15.69062 | 107.87459 | 34935 ft | 450 kts | 1° |
| 2026-05-07 19:19 | 15.75329 | 107.87694 | 34934 ft | 450 kts | 1° |
| 2026-05-07 19:19 | 15.81593 | 107.87926 | 34928 ft | 450 kts | 1° |
| 2026-05-07 19:20 | 15.87743 | 107.88157 | 34928 ft | 450 kts | 1° |
| 2026-05-07 19:20 | 15.93999 | 107.88292 | 34927 ft | 449 kts | 354° |
| 2026-05-07 19:21 | 16.00030 | 107.86767 | 34919 ft | 447 kts | 335° |
| 2026-05-07 19:21 | 16.05608 | 107.84011 | 34913 ft | 447 kts | 334° |
| 2026-05-07 19:22 | 16.11173 | 107.81286 | 34903 ft | 447 kts | 335° |
| 2026-05-07 19:22 | 16.16806 | 107.78525 | 34887 ft | 447 kts | 334° |
| 2026-05-07 19:23 | 16.22432 | 107.75762 | 34883 ft | 447 kts | 334° |
| 2026-05-07 19:23 | 16.28051 | 107.73000 | 34876 ft | 447 kts | 334° |
| 2026-05-07 19:24 | 16.33677 | 107.70223 | 34873 ft | 447 kts | 334° |
| 2026-05-07 19:24 | 16.39287 | 107.67449 | 34875 ft | 446 kts | 334° |
| 2026-05-07 19:25 | 16.44898 | 107.64677 | 34879 ft | 446 kts | 334° |
| 2026-05-07 19:25 | 16.50463 | 107.61935 | 34873 ft | 445 kts | 334° |
| 2026-05-07 19:26 | 16.56075 | 107.59188 | 34882 ft | 445 kts | 334° |
| 2026-05-07 19:26 | 16.61678 | 107.56434 | 34873 ft | 445 kts | 334° |
| 2026-05-07 19:27 | 16.67275 | 107.53675 | 34871 ft | 445 kts | 334° |
| 2026-05-07 19:27 | 16.72874 | 107.50920 | 34872 ft | 445 kts | 334° |
| 2026-05-07 19:28 | 16.78468 | 107.48173 | 34867 ft | 445 kts | 334° |
| 2026-05-07 19:28 | 16.84071 | 107.45416 | 34871 ft | 445 kts | 334° |
| 2026-05-07 19:29 | 16.89668 | 107.42659 | 34877 ft | 445 kts | 334° |
| 2026-05-07 19:29 | 16.95263 | 107.39900 | 34874 ft | 445 kts | 334° |
| 2026-05-07 19:30 | 17.00866 | 107.37140 | 34874 ft | 445 kts | 334° |
| 2026-05-07 19:30 | 17.06466 | 107.34371 | 34877 ft | 446 kts | 334° |
| 2026-05-07 19:31 | 17.12022 | 107.31575 | 34871 ft | 446 kts | 334° |
| 2026-05-07 19:31 | 17.17604 | 107.28743 | 34872 ft | 446 kts | 333° |
| 2026-05-07 19:32 | 17.23210 | 107.25905 | 34868 ft | 447 kts | 333° |
| 2026-05-07 19:32 | 17.28807 | 107.23082 | 34870 ft | 448 kts | 333° |
| 2026-05-07 19:33 | 17.34440 | 107.20242 | 34879 ft | 449 kts | 333° |
| 2026-05-07 19:33 | 17.40073 | 107.17403 | 34886 ft | 449 kts | 333° |
| 2026-05-07 19:34 | 17.45705 | 107.14566 | 34886 ft | 449 kts | 333° |
| 2026-05-07 19:34 | 17.51328 | 107.11719 | 34893 ft | 449 kts | 333° |
| 2026-05-07 19:35 | 17.56953 | 107.08868 | 34900 ft | 449 kts | 333° |
| 2026-05-07 19:35 | 17.62572 | 107.06021 | 34903 ft | 448 kts | 333° |
| 2026-05-07 19:36 | 17.68188 | 107.03170 | 34892 ft | 448 kts | 333° |
| 2026-05-07 19:36 | 17.73756 | 107.00348 | 34898 ft | 447 kts | 333° |
| 2026-05-07 19:37 | 17.79355 | 106.97507 | 34899 ft | 447 kts | 333° |
| 2026-05-07 19:37 | 17.84963 | 106.94657 | 34898 ft | 447 kts | 333° |
| 2026-05-07 19:38 | 17.90570 | 106.91810 | 34904 ft | 447 kts | 333° |
| 2026-05-07 19:38 | 17.96175 | 106.88984 | 34898 ft | 447 kts | 333° |
| 2026-05-07 19:39 | 18.01794 | 106.86166 | 34904 ft | 447 kts | 333° |
| 2026-05-07 19:39 | 18.07408 | 106.83341 | 34902 ft | 448 kts | 333° |
| 2026-05-07 19:40 | 18.13028 | 106.80501 | 34905 ft | 448 kts | 333° |
| 2026-05-07 19:40 | 18.18653 | 106.77661 | 34906 ft | 448 kts | 333° |
| 2026-05-07 19:41 | 18.24269 | 106.74826 | 34901 ft | 448 kts | 333° |
| 2026-05-07 19:41 | 18.29852 | 106.72000 | 34908 ft | 448 kts | 333° |
| 2026-05-07 19:42 | 18.35468 | 106.69151 | 34905 ft | 448 kts | 333° |
| 2026-05-07 19:42 | 18.41083 | 106.66302 | 34911 ft | 448 kts | 333° |
| 2026-05-07 19:43 | 18.46701 | 106.63450 | 34909 ft | 448 kts | 333° |
| 2026-05-07 19:43 | 18.52322 | 106.60599 | 34907 ft | 448 kts | 333° |
| 2026-05-07 19:44 | 18.57941 | 106.57752 | 34903 ft | 448 kts | 333° |
| 2026-05-07 19:44 | 18.63562 | 106.54927 | 34901 ft | 448 kts | 333° |
| 2026-05-07 19:45 | 18.69150 | 106.52113 | 34904 ft | 448 kts | 333° |
| 2026-05-07 19:45 | 18.74767 | 106.49281 | 34902 ft | 447 kts | 333° |
| 2026-05-07 19:46 | 18.80380 | 106.46438 | 34896 ft | 447 kts | 333° |
| 2026-05-07 19:46 | 18.85992 | 106.43596 | 34900 ft | 447 kts | 333° |
| 2026-05-07 19:47 | 18.91281 | 106.40917 | 34899 ft | 447 kts | 333° |
| 2026-05-07 19:47 | 18.96902 | 106.38076 | 34896 ft | 448 kts | 333° |
| 2026-05-07 19:48 | 19.02527 | 106.35245 | 34898 ft | 448 kts | 333° |
| 2026-05-07 19:48 | 19.08155 | 106.32415 | 34898 ft | 448 kts | 333° |
| 2026-05-07 19:49 | 19.13788 | 106.29574 | 34901 ft | 448 kts | 333° |
| 2026-05-07 19:49 | 19.19421 | 106.26733 | 34902 ft | 448 kts | 333° |
| 2026-05-07 19:50 | 19.25054 | 106.23894 | 34904 ft | 449 kts | 333° |
| 2026-05-07 19:50 | 19.30654 | 106.21069 | 34903 ft | 449 kts | 333° |
| 2026-05-07 19:51 | 19.36331 | 106.18193 | 34907 ft | 449 kts | 333° |
| 2026-05-07 19:51 | 19.41932 | 106.15354 | 34914 ft | 449 kts | 333° |
| 2026-05-07 19:52 | 19.47612 | 106.12478 | 34910 ft | 449 kts | 333° |
| 2026-05-07 19:52 | 19.53219 | 106.09629 | 34917 ft | 450 kts | 333° |
| 2026-05-07 19:53 | 19.58885 | 106.06787 | 34916 ft | 450 kts | 333° |
| 2026-05-07 19:53 | 19.64551 | 106.03954 | 34916 ft | 450 kts | 333° |
| 2026-05-07 19:54 | 19.70220 | 106.01108 | 34552 ft | 452 kts | 333° |
| 2026-05-07 19:54 | 19.73065 | 105.99677 | 34056 ft | 452 kts | 333° |
| 2026-05-07 19:54 | 19.75901 | 105.98252 | 33507 ft | 450 kts | 333° |
| 2026-05-07 19:55 | 19.78726 | 105.96831 | 32920 ft | 448 kts | 333° |
| 2026-05-07 19:55 | 19.81531 | 105.95420 | 32360 ft | 446 kts | 333° |
| 2026-05-07 19:55 | 19.84331 | 105.94012 | 31807 ft | 443 kts | 333° |
| 2026-05-07 19:55 | 19.87109 | 105.92615 | 31262 ft | 441 kts | 333° |
| 2026-05-07 19:56 | 19.89873 | 105.91224 | 30740 ft | 438 kts | 333° |
| 2026-05-07 19:56 | 19.92586 | 105.89852 | 30220 ft | 436 kts | 333° |
| 2026-05-07 19:56 | 19.95320 | 105.88469 | 29662 ft | 434 kts | 333° |
| 2026-05-07 19:56 | 19.98037 | 105.87098 | 29056 ft | 432 kts | 333° |
| 2026-05-07 19:57 | 20.00745 | 105.85734 | 28464 ft | 429 kts | 333° |
| 2026-05-07 19:57 | 20.03438 | 105.84375 | 27893 ft | 427 kts | 333° |
| 2026-05-07 19:57 | 20.06115 | 105.83022 | 27323 ft | 425 kts | 333° |
| 2026-05-07 19:57 | 20.08779 | 105.81676 | 26774 ft | 423 kts | 333° |
| 2026-05-07 19:58 | 20.11428 | 105.80336 | 26229 ft | 421 kts | 333° |
| 2026-05-07 19:58 | 20.14071 | 105.79001 | 25686 ft | 418 kts | 333° |
| 2026-05-07 19:58 | 20.16688 | 105.77676 | 25170 ft | 416 kts | 333° |
| 2026-05-07 19:58 | 20.19297 | 105.76351 | 24675 ft | 414 kts | 333° |
| 2026-05-07 19:59 | 20.21887 | 105.75038 | 24215 ft | 410 kts | 333° |
| 2026-05-07 19:59 | 20.24451 | 105.73744 | 23785 ft | 406 kts | 333° |
| 2026-05-07 19:59 | 20.26988 | 105.72466 | 23320 ft | 402 kts | 333° |
| 2026-05-07 19:59 | 20.29511 | 105.71190 | 22815 ft | 398 kts | 333° |
| 2026-05-07 20:00 | 20.31999 | 105.69926 | 22309 ft | 395 kts | 333° |
| 2026-05-07 20:00 | 20.34466 | 105.68673 | 21811 ft | 391 kts | 333° |
| 2026-05-07 20:00 | 20.36916 | 105.67430 | 21324 ft | 388 kts | 333° |
| 2026-05-07 20:00 | 20.39345 | 105.66196 | 20843 ft | 385 kts | 333° |
| 2026-05-07 20:01 | 20.41797 | 105.65072 | 20373 ft | 383 kts | 340° |
| 2026-05-07 20:01 | 20.44340 | 105.64378 | 19912 ft | 382 kts | 349° |
| 2026-05-07 20:01 | 20.46983 | 105.64131 | 19460 ft | 380 kts | 358° |
| 2026-05-07 20:01 | 20.49621 | 105.64115 | 19008 ft | 378 kts | 358° |
| 2026-05-07 20:02 | 20.52245 | 105.64093 | 18566 ft | 376 kts | 358° |
| 2026-05-07 20:02 | 20.54853 | 105.64067 | 18144 ft | 374 kts | 358° |
| 2026-05-07 20:02 | 20.57449 | 105.64042 | 17648 ft | 371 kts | 358° |
| 2026-05-07 20:02 | 20.60018 | 105.64019 | 17180 ft | 369 kts | 358° |
| 2026-05-07 20:03 | 20.62579 | 105.63996 | 16709 ft | 367 kts | 358° |
| 2026-05-07 20:03 | 20.65127 | 105.63972 | 16245 ft | 365 kts | 358° |
| 2026-05-07 20:03 | 20.67660 | 105.63949 | 15783 ft | 363 kts | 358° |
| 2026-05-07 20:03 | 20.70176 | 105.63928 | 15342 ft | 360 kts | 358° |
| 2026-05-07 20:04 | 20.72676 | 105.63905 | 14891 ft | 359 kts | 358° |
| 2026-05-07 20:04 | 20.75169 | 105.63881 | 14432 ft | 357 kts | 358° |
| 2026-05-07 20:04 | 20.77630 | 105.63858 | 13971 ft | 349 kts | 359° |
| 2026-05-07 20:04 | 20.80033 | 105.63837 | 13489 ft | 340 kts | 359° |
| 2026-05-07 20:05 | 20.82337 | 105.63817 | 12996 ft | 332 kts | 359° |
| 2026-05-07 20:05 | 20.84564 | 105.63800 | 12510 ft | 325 kts | 359° |
| 2026-05-07 20:05 | 20.86795 | 105.63784 | 12024 ft | 318 kts | 359° |
| 2026-05-07 20:05 | 20.88989 | 105.63765 | 11529 ft | 312 kts | 359° |
| 2026-05-07 20:06 | 20.91132 | 105.63743 | 11070 ft | 306 kts | 359° |
| 2026-05-07 20:06 | 20.93247 | 105.63721 | 10593 ft | 301 kts | 359° |
| 2026-05-07 20:06 | 20.95323 | 105.63702 | 10137 ft | 296 kts | 359° |
| 2026-05-07 20:06 | 20.97377 | 105.63684 | 9671 ft | 295 kts | 359° |
| 2026-05-07 20:07 | 20.99433 | 105.63666 | 9165 ft | 295 kts | 360° |
| 2026-05-07 20:07 | 21.01480 | 105.63640 | 8672 ft | 294 kts | 358° |
| 2026-05-07 20:07 | 21.02822 | 105.63454 | 8346 ft | 294 kts | 347° |
| 2026-05-07 20:07 | 21.04775 | 105.62852 | 7857 ft | 289 kts | 344° |
| 2026-05-07 20:08 | 21.07289 | 105.62052 | 7218 ft | 274 kts | 345° |
| 2026-05-07 20:08 | 21.08479 | 105.61676 | 6930 ft | 266 kts | 345° |
| 2026-05-07 20:08 | 21.10242 | 105.61122 | 6565 ft | 260 kts | 345° |
| 2026-05-07 20:08 | 21.12495 | 105.60410 | 6124 ft | 248 kts | 345° |
| 2026-05-07 20:09 | 21.14122 | 105.59893 | 5750 ft | 240 kts | 345° |
| 2026-05-07 20:09 | 21.15190 | 105.59554 | 5506 ft | 235 kts | 345° |
| 2026-05-07 20:09 | 21.17234 | 105.59002 | 5095 ft | 223 kts | 358° |
| 2026-05-07 20:10 | 21.19687 | 105.59557 | 4629 ft | 216 kts | 22° |
| 2026-05-07 20:10 | 21.21081 | 105.60121 | 4333 ft | 214 kts | 21° |
| 2026-05-07 20:10 | 21.22470 | 105.60675 | 4039 ft | 212 kts | 21° |
| 2026-05-07 20:10 | 21.23838 | 105.61227 | 3743 ft | 209 kts | 24° |
| 2026-05-07 20:11 | 21.25045 | 105.62056 | 3445 ft | 207 kts | 44° |
| 2026-05-07 20:11 | 21.25938 | 105.63303 | 2980 ft | 213 kts | 64° |
| 2026-05-07 20:11 | 21.26348 | 105.64805 | 2711 ft | 209 kts | 84° |
| 2026-05-07 20:11 | 21.26249 | 105.66331 | 2476 ft | 202 kts | 104° |
| 2026-05-07 20:12 | 21.25848 | 105.67726 | 2220 ft | 192 kts | 106° |
| 2026-05-07 20:12 | 21.25467 | 105.69055 | 1973 ft | 180 kts | 106° |
| 2026-05-07 20:12 | 21.25110 | 105.70294 | 1752 ft | 168 kts | 107° |
| 2026-05-07 20:12 | 21.24775 | 105.71457 | 1542 ft | 161 kts | 106° |
| 2026-05-07 20:13 | 21.24456 | 105.72566 | 1353 ft | 150 kts | 106° |
| 2026-05-07 20:13 | 21.24152 | 105.73621 | 1150 ft | 147 kts | 106° |
| 2026-05-07 20:13 | 21.23852 | 105.74662 | 960 ft | 146 kts | 105° |
| 2026-05-07 20:13 | 21.23550 | 105.75706 | 766 ft | 148 kts | 105° |
| 2026-05-07 20:14 | 21.23247 | 105.76771 | 546 ft | 149 kts | 106° |
| 2026-05-07 20:14 | 21.22947 | 105.77843 | 371 ft | 152 kts | 106° |
| 2026-05-07 20:14 | 21.22623 | 105.78923 | 152 ft | 152 kts | 107° |
| 2026-05-07 20:14 | 21.22315 | 105.79978 | 48 ft | 137 kts | 107° |
| 2026-05-07 20:15 | 21.22094 | 105.80745 | 51 ft | 81 kts | 107° |
| 2026-05-07 20:15 | 21.21987 | 105.81116 | 49 ft | 24 kts | 108° |
| 2026-05-07 20:15 | 21.21909 | 105.81278 | 49 ft | 24 kts | 126° |
| 2026-05-07 20:15 | 21.21793 | 105.81401 | 50 ft | 23 kts | 137° |
| 2026-05-07 20:16 | 21.21678 | 105.81510 | 49 ft | 21 kts | 142° |
| 2026-05-07 20:16 | 21.21581 | 105.81560 | 52 ft | 10 kts | 171° |
| 2026-05-07 20:16 | 21.21514 | 105.81547 | 51 ft | 10 kts | 196° |
| 2026-05-07 20:16 | 21.21470 | 105.81500 | 50 ft | 9 kts | 266° |
| 2026-05-07 20:17 | 21.21486 | 105.81434 | 50 ft | 9 kts | 288° |
| 2026-05-07 20:17 | 21.21505 | 105.81370 | 46 ft | 9 kts | 288° |
| 2026-05-07 20:17 | 21.21523 | 105.81309 | 49 ft | 8 kts | 288° |
| 2026-05-07 20:17 | 21.21539 | 105.81249 | 49 ft | 8 kts | 285° |
| 2026-05-07 20:18 | 21.21555 | 105.81191 | 49 ft | 8 kts | 288° |
| 2026-05-07 20:18 | 21.21577 | 105.81116 | 45 ft | 13 kts | 288° |
| 2026-05-07 20:18 | 21.21606 | 105.81017 | 47 ft | 14 kts | 287° |
| 2026-05-07 20:18 | 21.21637 | 105.80910 | 49 ft | 16 kts | 287° |
| 2026-05-07 20:19 | 21.21669 | 105.80800 | 49 ft | 15 kts | 287° |
| 2026-05-07 20:19 | 21.21692 | 105.80705 | 49 ft | 11 kts | 263° |
| 2026-05-07 20:19 | 21.21640 | 105.80656 | 49 ft | 10 kts | 219° |
| 2026-05-07 20:19 | 21.21637 | 105.80591 | 49 ft | 9 kts | 284° |
| 2026-05-07 20:20 | 21.21654 | 105.80529 | 49 ft | 9 kts | 287° |
| 2026-05-07 20:20 | 21.21656 | 105.80470 | 49 ft | 8 kts | 241° |
| 2026-05-07 20:20 | 21.21621 | 105.80431 | 49 ft | 7 kts | 223° |
| 2026-05-07 20:20 | 21.21589 | 105.80399 | 45 ft | 1 kts | 221° |
| 2026-05-07 20:21 | 21.21588 | 105.80398 | 46 ft | 0 kts | 221° |